Time;durP1;ratioP1;P1;durP2;ratioP2;P2;SDS_P1;SDS_P2;PMS_P1;PMS_P2;Temp;Humidity;BMP_temperature;BMP_pressure;BME280_temperature;BME280_humidity;BME280_pressure;Samples;Min_cycle;Max_cycle;Signal;HPM_P1;HPM_P2
2022/05/03 00:03:28;;;;;;;5.97;3.90;;;;;;;;;;10358534;28;20402;-64
2022/05/03 00:08:28;;;;;;;6.15;3.47;;;;;;;;;;10358208;28;20076;-64
2022/05/03 00:13:28;;;;;;;6.57;4.40;;;;;;;;;;10358673;28;20501;-66
2022/05/03 00:18:26;;;;;;;5.53;4.47;;;;;;;;;;10358128;28;20493;-64
2022/05/03 00:23:25;;;;;;;5.35;3.97;;;;;;;;;;10358571;28;20048;-63
2022/05/03 00:28:25;;;;;;;6.78;4.22;;;;;;;;;;10358340;28;20094;-64
2022/05/03 00:33:23;;;;;;;11.10;7.18;;;;;;;;;;10358750;28;20047;-64
2022/05/03 00:38:25;;;;;;;20.35;12.55;;;;;;;;;;10357411;28;20079;-64
2022/05/03 00:43:26;;;;;;;9.82;5.55;;;;;;;;;;10356341;28;20071;-63
2022/05/03 00:48:30;;;;;;;7.95;4.88;;;;;;;;;;10355928;28;20080;-63
2022/05/03 00:53:32;;;;;;;8.02;4.18;;;;;;;;;;10348153;28;20098;-63
2022/05/03 00:58:43;;;;;;;6.00;4.50;;;;;;;;;;10356392;28;20055;-63
2022/05/03 01:03:47;;;;;;;8.10;5.25;;;;;;;;;;10356091;28;20079;-63
2022/05/03 01:08:52;;;;;;;6.28;4.18;;;;;;;;;;10349718;28;20083;-64
2022/05/03 01:13:54;;;;;;;7.10;4.65;;;;;;;;;;10356775;28;20437;-63
2022/05/03 01:18:54;;;;;;;8.77;4.47;;;;;;;;;;10355266;28;20525;-64
2022/05/03 01:24:02;;;;;;;9.50;4.32;;;;;;;;;;10355539;28;20060;-64
2022/05/03 01:29:11;;;;;;;7.32;5.10;;;;;;;;;;10356086;28;20083;-63
2022/05/03 01:34:12;;;;;;;5.72;5.05;;;;;;;;;;10352208;28;20048;-64
2022/05/03 01:39:16;;;;;;;6.35;4.80;;;;;;;;;;10355008;28;20052;-63
2022/05/03 01:44:20;;;;;;;8.23;5.07;;;;;;;;;;10353120;28;20044;-64
2022/05/03 01:54:46;;;;;;;6.47;5.57;;;;;;;;;;10354901;28;20079;-64
2022/05/03 01:59:50;;;;;;;10.07;5.50;;;;;;;;;;10355344;28;20083;-64
2022/05/03 02:04:49;;;;;;;;;;;;;;;;;;10355376;28;20083;-64
2022/05/03 02:09:53;;;;;;;7.32;4.75;;;;;;;;;;10354713;28;19943;-63
2022/05/03 02:15:11;;;;;;;8.00;4.68;;;;;;;;;;10350010;28;20095;-63
2022/05/03 02:20:14;;;;;;;6.78;4.80;;;;;;;;;;10353744;28;20086;-64
2022/05/03 02:25:15;;;;;;;4.90;4.43;;;;;;;;;;10353546;28;20071;-64
2022/05/03 02:30:34;;;;;;;7.82;4.70;;;;;;;;;;10352946;28;20091;-64
2022/05/03 02:35:50;;;;;;;5.07;4.57;;;;;;;;;;10353781;28;20071;-64
2022/05/03 02:40:52;;;;;;;5.15;4.30;;;;;;;;;;10353427;28;20078;-64
2022/05/03 02:45:56;;;;;;;6.60;5.38;;;;;;;;;;10354222;28;20425;-64
2022/05/03 02:50:58;;;;;;;12.00;4.65;;;;;;;;;;10361255;28;20087;-63
2022/05/03 02:56:18;;;;;;;6.53;4.45;;;;;;;;;;10358920;28;20047;-64
2022/05/03 03:06:55;;;;;;;9.70;5.50;;;;;;;;;;10273049;28;20080;-64
2022/05/03 03:12:19;;;;;;;10.15;5.85;;;;;;;;;;10343987;28;20079;-64
2022/05/03 03:17:21;;;;;;;11.23;5.68;;;;;;;;;;10354231;28;20249;-64
2022/05/03 03:22:20;;;;;;;6.13;5.13;;;;;;;;;;10354393;28;20469;-64
2022/05/03 03:27:20;;;;;;;9.57;5.20;;;;;;;;;;10359580;28;20285;-64
2022/05/03 03:32:21;;;;;;;7.25;4.63;;;;;;;;;;10355890;28;20084;-63
2022/05/03 03:37:22;;;;;;;7.18;5.00;;;;;;;;;;10353470;28;20076;-64
2022/05/03 03:42:21;;;;;;;6.75;5.07;;;;;;;;;;10357436;28;20072;-63
2022/05/03 03:47:20;;;;;;;7.60;4.72;;;;;;;;;;10352013;28;20072;-63
2022/05/03 03:52:19;;;;;;;8.02;5.18;;;;;;;;;;10359466;28;20158;-64
2022/05/03 03:57:20;;;;;;;10.32;5.40;;;;;;;;;;10356098;28;20071;-64
2022/05/03 04:02:19;;;;;;;6.85;4.00;;;;;;;;;;10354558;28;20075;-64
2022/05/03 04:07:19;;;;;;;6.35;4.30;;;;;;;;;;10358564;28;20047;-63
2022/05/03 04:12:19;;;;;;;7.80;5.70;;;;;;;;;;10352885;28;20525;-64
2022/05/03 04:17:18;;;;;;;9.88;5.32;;;;;;;;;;10359745;28;20040;-64
2022/05/03 04:22:27;;;;;;;8.07;5.18;;;;;;;;;;10358627;28;20074;-64
2022/05/03 04:27:26;;;;;;;12.82;5.82;;;;;;;;;;10357243;28;20515;-65
2022/05/03 04:32:24;;;;;;;12.48;5.03;;;;;;;;;;10354762;28;20075;-64
2022/05/03 04:37:23;;;;;;;13.65;5.15;;;;;;;;;;10352244;28;20051;-64
2022/05/03 04:42:22;;;;;;;9.60;5.47;;;;;;;;;;10351812;28;20071;-64
2022/05/03 04:47:20;;;;;;;6.03;4.85;;;;;;;;;;10355773;28;20086;-64
2022/05/03 04:52:19;;;;;;;11.88;4.97;;;;;;;;;;10352205;28;20492;-64
2022/05/03 04:57:17;;;;;;;6.25;4.88;;;;;;;;;;10355056;28;20067;-64
2022/05/03 05:02:16;;;;;;;7.40;5.47;;;;;;;;;;10350096;28;20071;-64
2022/05/03 05:07:15;;;;;;;7.80;4.97;;;;;;;;;;10346627;28;20468;-63
2022/05/03 05:12:13;;;;;;;10.82;5.68;;;;;;;;;;10349978;28;20099;-64
2022/05/03 05:17:11;;;;;;;9.60;6.55;;;;;;;;;;10353763;28;20120;-64
2022/05/03 05:22:11;;;;;;;6.22;5.38;;;;;;;;;;10354644;28;20063;-64
2022/05/03 05:27:09;;;;;;;5.53;4.88;;;;;;;;;;10354656;28;20081;-64
2022/05/03 05:32:08;;;;;;;5.90;5.35;;;;;;;;;;10355365;28;20075;-64
2022/05/03 05:37:06;;;;;;;11.65;6.70;;;;;;;;;;10355068;28;20083;-64
2022/05/03 05:42:06;;;;;;;8.10;6.05;;;;;;;;;;10343648;28;20072;-64
2022/05/03 05:47:06;;;;;;;9.35;5.75;;;;;;;;;;10353289;28;20078;-64
2022/05/03 05:57:22;;;;;;;9.43;5.97;;;;;;;;;;10353531;28;20067;-65
2022/05/03 06:02:20;;;;;;;9.48;5.85;;;;;;;;;;10350882;28;20118;-64
2022/05/03 06:07:18;;;;;;;8.25;6.07;;;;;;;;;;10352783;28;20070;-63
2022/05/03 06:12:17;;;;;;;9.98;5.90;;;;;;;;;;10343643;28;20080;-64
2022/05/03 06:17:17;;;;;;;7.43;6.65;;;;;;;;;;10351488;28;20055;-65
2022/05/03 06:22:15;;;;;;;8.20;6.43;;;;;;;;;;10357360;28;20115;-64
2022/05/03 06:27:13;;;;;;;12.35;6.32;;;;;;;;;;10358453;28;20060;-63
2022/05/03 06:32:12;;;;;;;7.85;5.90;;;;;;;;;;10362050;28;20083;-63
2022/05/03 06:37:16;;;;;;;15.65;6.20;;;;;;;;;;10361024;28;20562;-64
2022/05/03 06:42:16;;;;;;;10.82;6.20;;;;;;;;;;10350526;28;20549;-64
2022/05/03 06:47:14;;;;;;;10.75;6.43;;;;;;;;;;10351637;28;20072;-64
2022/05/03 06:52:14;;;;;;;9.65;6.22;;;;;;;;;;10357793;28;20152;-64
2022/05/03 06:57:12;;;;;;;10.02;7.00;;;;;;;;;;10361788;28;20051;-64
2022/05/03 07:02:11;;;;;;;11.50;7.10;;;;;;;;;;10361612;28;20090;-64
2022/05/03 07:07:09;;;;;;;9.05;6.80;;;;;;;;;;10361264;28;20118;-64
2022/05/03 07:12:09;;;;;;;9.48;6.57;;;;;;;;;;10360359;28;20080;-64
2022/05/03 07:17:08;;;;;;;13.30;7.03;;;;;;;;;;10361094;28;20056;-64
2022/05/03 07:27:21;;;;;;;;;;;;;;;;;;10356012;28;20081;-64
2022/05/03 07:32:21;;;;;;;7.78;5.82;;;;;;;;;;10358650;28;19951;-64
2022/05/03 07:37:19;;;;;;;11.60;6.85;;;;;;;;;;10360289;28;20064;-64
2022/05/03 07:42:17;;;;;;;10.98;7.45;;;;;;;;;;10361264;28;20462;-64
2022/05/03 07:47:16;;;;;;;16.55;6.10;;;;;;;;;;10360848;28;20052;-63
2022/05/03 07:52:15;;;;;;;12.43;8.05;;;;;;;;;;10359450;28;20106;-64
2022/05/03 07:57:14;;;;;;;8.50;6.25;;;;;;;;;;10352921;28;20056;-63
2022/05/03 08:02:12;;;;;;;10.48;7.35;;;;;;;;;;10358776;28;20083;-63
2022/05/03 08:07:10;;;;;;;15.52;6.78;;;;;;;;;;10359231;28;20079;-64
2022/05/03 08:12:11;;;;;;;15.57;7.55;;;;;;;;;;10357912;28;20113;-63
2022/05/03 08:17:09;;;;;;;8.18;6.53;;;;;;;;;;10358899;28;20076;-64
2022/05/03 08:22:07;;;;;;;7.60;5.72;;;;;;;;;;10356419;28;20074;-64
2022/05/03 08:27:06;;;;;;;80.70;63.25;;;;;;;;;;10353511;28;20080;-65
2022/05/03 08:32:06;;;;;;;45.78;36.17;;;;;;;;;;10358145;28;20079;-65
2022/05/03 08:42:20;;;;;;;8.05;6.00;;;;;;;;;;10351029;28;20067;-64
2022/05/03 08:47:20;;;;;;;8.90;5.78;;;;;;;;;;10350977;28;20071;-64
2022/05/03 08:52:18;;;;;;;11.75;8.52;;;;;;;;;;10357012;28;20296;-64
2022/05/03 08:57:18;;;;;;;16.33;9.65;;;;;;;;;;10350641;28;20460;-64
2022/05/03 09:02:16;;;;;;;12.65;9.40;;;;;;;;;;10356536;28;20083;-64
2022/05/03 09:07:20;;;;;;;8.63;4.70;;;;;;;;;;10350236;28;20059;-64
2022/05/03 09:12:25;;;;;;;9.83;4.43;;;;;;;;;;10350409;28;20469;-64
2022/05/03 09:17:37;;;;;;;6.15;3.22;;;;;;;;;;10356131;28;20047;-65
2022/05/03 09:28:05;;;;;;;11.73;6.90;;;;;;;;;;10355857;28;20079;-65
2022/05/03 09:33:03;;;;;;;11.98;7.82;;;;;;;;;;10355557;28;20181;-65
2022/05/03 09:38:05;;;;;;;20.63;16.02;;;;;;;;;;10349425;28;20079;-65
2022/05/03 09:43:05;;;;;;;8.65;5.18;;;;;;;;;;10349399;28;20068;-64
2022/05/03 09:48:04;;;;;;;9.10;5.03;;;;;;;;;;10348303;28;20099;-64
2022/05/03 09:53:09;;;;;;;30.50;23.50;;;;;;;;;;10355841;28;20094;-65
2022/05/03 09:58:07;;;;;;;;;;;;;;;;;;10356739;28;20075;-65
2022/05/03 10:03:07;;;;;;;11.05;7.60;;;;;;;;;;10357463;28;19951;-65
2022/05/03 10:08:06;;;;;;;7.35;6.30;;;;;;;;;;10356883;28;20486;-64
2022/05/03 10:13:06;;;;;;;8.27;5.63;;;;;;;;;;10356673;28;20098;-64
2022/05/03 10:23:22;;;;;;;8.55;6.10;;;;;;;;;;10358547;28;20036;-65
2022/05/03 10:28:22;;;;;;;19.52;6.80;;;;;;;;;;10363321;28;20458;-65
2022/05/03 10:33:42;;;;;;;7.85;4.82;;;;;;;;;;10362702;28;20080;-65
2022/05/03 10:38:43;;;;;;;8.32;4.93;;;;;;;;;;10358416;28;20109;-65
2022/05/03 10:43:43;;;;;;;8.20;6.35;;;;;;;;;;10356127;28;20411;-64
2022/05/03 10:48:42;;;;;;;9.27;5.82;;;;;;;;;;10351370;28;20153;-65
2022/05/03 10:53:41;;;;;;;8.48;6.45;;;;;;;;;;10358114;28;20075;-65
2022/05/03 10:58:40;;;;;;;5.75;4.25;;;;;;;;;;10357780;28;20051;-65
2022/05/03 11:03:58;;;;;;;12.17;4.00;;;;;;;;;;10359637;28;20079;-65
2022/05/03 11:09:11;;;;;;;7.60;5.07;;;;;;;;;;10357101;28;20338;-65
2022/05/03 11:14:38;;;;;;;11.40;4.63;;;;;;;;;;10273646;28;20392;-65
2022/05/03 11:19:38;;;;;;;7.28;5.00;;;;;;;;;;10274955;28;20080;-65
2022/05/03 11:24:41;;;;;;;5.47;4.03;;;;;;;;;;10277391;28;20060;-65
2022/05/03 11:29:41;;;;;;;9.48;5.32;;;;;;;;;;10280158;28;20494;-65
2022/05/03 11:34:40;;;;;;;8.20;5.30;;;;;;;;;;10279997;28;20099;-65
2022/05/03 11:39:40;;;;;;;8.55;4.53;;;;;;;;;;10280087;28;20049;-65
2022/05/03 11:44:42;;;;;;;5.90;4.60;;;;;;;;;;10278926;28;20037;-65
2022/05/03 11:49:43;;;;;;;;;;;;;;;;;;10278864;28;20061;-65
2022/05/03 11:59:59;;;;;;;12.50;5.90;;;;;;;;;;10277804;28;20072;-65
2022/05/03 12:05:11;;;;;;;6.82;5.97;;;;;;;;;;10277924;28;20092;-65
2022/05/03 12:10:21;;;;;;;10.15;5.13;;;;;;;;;;10292976;28;20094;-63
2022/05/03 12:15:21;;;;;;;10.00;6.40;;;;;;;;;;10358248;28;20068;-65
2022/05/03 12:20:19;;;;;;;11.32;9.40;;;;;;;;;;10357192;28;20036;-64
2022/05/03 12:25:27;;;;;;;6.80;4.05;;;;;;;;;;10352652;28;20501;-65
2022/05/03 12:30:28;;;;;;;5.90;4.15;;;;;;;;;;10357275;28;20071;-65
2022/05/03 12:35:29;;;;;;;8.07;4.78;;;;;;;;;;10357622;28;20475;-65
2022/05/03 12:40:28;;;;;;;9.05;5.28;;;;;;;;;;10356986;28;20079;-65
2022/05/03 12:45:30;;;;;;;5.25;4.15;;;;;;;;;;10357038;28;20087;-65
2022/05/03 12:50:28;;;;;;;8.90;5.38;;;;;;;;;;10356932;28;20162;-65
2022/05/03 12:55:28;;;;;;;9.32;5.13;;;;;;;;;;10356864;28;20079;-65
2022/05/03 13:00:28;;;;;;;3.65;2.97;;;;;;;;;;10356582;28;20075;-65
2022/05/03 13:05:26;;;;;;;4.03;2.97;;;;;;;;;;10356491;28;20432;-65
2022/05/03 13:10:25;;;;;;;3.47;2.75;;;;;;;;;;10356061;28;20114;-65
2022/05/03 13:15:23;;;;;;;2.92;2.47;;;;;;;;;;10363630;28;20079;-65
2022/05/03 13:20:23;;;;;;;8.57;6.53;;;;;;;;;;10355888;28;20101;-65
2022/05/03 13:25:22;;;;;;;11.07;9.00;;;;;;;;;;10356018;28;20444;-64
2022/05/03 13:30:21;;;;;;;11.10;5.68;;;;;;;;;;10355661;28;20102;-65
2022/05/03 13:40:28;;;;;;;8.55;6.35;;;;;;;;;;10355121;28;20071;-65
2022/05/03 13:40:39;;;;;;;20.70;11.35;;;;;;;;;;10355592;28;20055;-65
2022/05/03 13:45:38;;;;;;;22.00;14.15;;;;;;;;;;10355502;28;20083;-65
2022/05/03 13:50:56;;;;;;;7.82;4.80;;;;;;;;;;10354676;28;20048;-65
2022/05/03 13:55:56;;;;;;;5.63;4.10;;;;;;;;;;10354985;28;20447;-65
2022/05/03 14:00:54;;;;;;;4.75;2.92;;;;;;;;;;10355199;28;20068;-64
2022/05/03 14:05:52;;;;;;;5.63;3.35;;;;;;;;;;10354893;28;20071;-64
2022/05/03 14:10:51;;;;;;;3.08;2.78;;;;;;;;;;10354544;28;20075;-64
2022/05/03 14:15:50;;;;;;;2.90;2.70;;;;;;;;;;10354629;28;20064;-64
2022/05/03 14:20:49;;;;;;;4.82;4.07;;;;;;;;;;10354558;28;20047;-64
2022/05/03 14:25:48;;;;;;;3.67;2.30;;;;;;;;;;10346417;28;20080;-64
2022/05/03 14:30:47;;;;;;;6.38;4.50;;;;;;;;;;10354378;28;20285;-64
2022/05/03 14:35:46;;;;;;;4.32;3.20;;;;;;;;;;10354641;28;20079;-64
2022/05/03 14:40:45;;;;;;;4.05;2.20;;;;;;;;;;10356420;28;20091;-64
2022/05/03 14:45:44;;;;;;;3.35;2.53;;;;;;;;;;10363001;28;20087;-64
2022/05/03 14:50:43;;;;;;;5.65;2.47;;;;;;;;;;10362925;28;20482;-64
2022/05/03 15:02:52;;;;;;;3.80;2.80;;;;;;;;;;10362514;28;20181;-64
2022/05/03 15:06:18;;;;;;;4.30;3.15;;;;;;;;;;10360458;28;20052;-63
2022/05/03 15:11:17;;;;;;;4.72;3.17;;;;;;;;;;10360087;28;20413;-64
2022/05/03 15:16:16;;;;;;;10.98;7.57;;;;;;;;;;10360823;28;20078;-63
2022/05/03 15:21:14;;;;;;;14.65;10.13;;;;;;;;;;10360792;28;20044;-64
2022/05/03 15:26:12;;;;;;;4.15;3.75;;;;;;;;;;10360538;28;20082;-64
2022/05/03 15:31:12;;;;;;;4.47;3.67;;;;;;;;;;10359863;28;20043;-64
2022/05/03 15:36:10;;;;;;;10.20;5.90;;;;;;;;;;10355779;28;20072;-64
2022/05/03 15:41:09;;;;;;;8.43;5.18;;;;;;;;;;10356916;28;20076;-64
2022/05/03 15:46:07;;;;;;;5.60;4.72;;;;;;;;;;10357458;28;20705;-64
2022/05/03 15:51:08;;;;;;;8.75;5.50;;;;;;;;;;10352949;28;20508;-64
2022/05/03 15:56:06;;;;;;;12.43;7.82;;;;;;;;;;10353935;28;20075;-64
2022/05/03 16:01:05;;;;;;;8.45;6.30;;;;;;;;;;10359225;28;20076;-63
2022/05/03 16:06:05;;;;;;;8.00;6.07;;;;;;;;;;10358964;28;20067;-63
2022/05/03 16:11:05;;;;;;;10.80;6.13;;;;;;;;;;10358369;28;20055;-64
2022/05/03 16:16:04;;;;;;;15.98;10.68;;;;;;;;;;10357953;28;20079;-64
2022/05/03 16:21:03;;;;;;;8.43;6.50;;;;;;;;;;10358099;28;20075;-64
2022/05/03 16:26:02;;;;;;;12.25;10.98;;;;;;;;;;10357937;28;20075;-64
2022/05/03 16:31:06;;;;;;;30.85;24.88;;;;;;;;;;10357827;28;20048;-64
2022/05/03 16:46:34;;;;;;;12.98;8.60;;;;;;;;;;10357918;28;20083;-64
2022/05/03 16:51:33;;;;;;;8.52;6.78;;;;;;;;;;10357283;28;20110;-64
2022/05/03 16:56:31;;;;;;;14.60;10.70;;;;;;;;;;10356339;28;20075;-64
2022/05/03 17:01:30;;;;;;;39.60;29.77;;;;;;;;;;10356689;28;20079;-63
2022/05/03 17:06:30;;;;;;;11.60;8.05;;;;;;;;;;10349282;28;20071;-64
2022/05/03 17:11:29;;;;;;;26.95;19.92;;;;;;;;;;10351389;28;20098;-64
2022/05/03 17:16:27;;;;;;;13.80;9.88;;;;;;;;;;10351786;28;20075;-64
2022/05/03 17:21:26;;;;;;;17.30;15.07;;;;;;;;;;10352451;28;20083;-63
2022/05/03 17:26:26;;;;;;;10.30;9.00;;;;;;;;;;10351573;28;20486;-63
2022/05/03 17:31:25;;;;;;;25.55;19.88;;;;;;;;;;10353853;28;20071;-64
2022/05/03 17:36:24;;;;;;;13.38;10.80;;;;;;;;;;10347999;28;20071;-64
2022/05/03 17:41:22;;;;;;;27.63;20.85;;;;;;;;;;10349658;28;20067;-64
2022/05/03 17:46:22;;;;;;;14.98;11.98;;;;;;;;;;10350642;28;20067;-63
2022/05/03 17:51:21;;;;;;;11.55;9.32;;;;;;;;;;10353685;28;20093;-64
2022/05/03 17:56:19;;;;;;;11.82;9.45;;;;;;;;;;10351916;28;20067;-64
2022/05/03 18:01:19;;;;;;;10.77;7.20;;;;;;;;;;10351866;28;20068;-63
2022/05/03 18:06:21;;;;;;;21.55;15.15;;;;;;;;;;10349496;28;20067;-63
2022/05/03 18:11:20;;;;;;;10.98;8.52;;;;;;;;;;10353850;28;20170;-63
2022/05/03 18:16:18;;;;;;;8.55;6.50;;;;;;;;;;10352831;28;20511;-63
2022/05/03 18:21:17;;;;;;;56.80;40.97;;;;;;;;;;10359694;28;20063;-63
2022/05/03 18:26:17;;;;;;;9.07;8.10;;;;;;;;;;10358035;28;20520;-64
2022/05/03 18:31:15;;;;;;;8.82;3.90;;;;;;;;;;10361280;28;20067;-64
2022/05/03 18:36:13;;;;;;;9.60;4.47;;;;;;;;;;10360238;28;20075;-64
2022/05/03 18:41:11;;;;;;;6.10;3.50;;;;;;;;;;10357078;28;20064;-63
2022/05/03 18:46:11;;;;;;;6.85;5.13;;;;;;;;;;10358752;27;20071;-64
2022/05/03 18:51:10;;;;;;;5.05;4.55;;;;;;;;;;10359372;28;20060;-63
2022/05/03 18:56:08;;;;;;;5.85;5.15;;;;;;;;;;10357811;28;20083;-63
2022/05/03 19:01:07;;;;;;;6.80;5.60;;;;;;;;;;10355063;28;20079;-64
2022/05/03 19:06:07;;;;;;;10.63;4.78;;;;;;;;;;10354504;28;20167;-64
2022/05/03 19:11:07;;;;;;;5.10;4.03;;;;;;;;;;10354334;28;20482;-64
2022/05/03 19:16:06;;;;;;;7.00;5.03;;;;;;;;;;10357193;28;20161;-64
2022/05/03 19:21:05;;;;;;;5.22;3.85;;;;;;;;;;10357547;28;20056;-64
2022/05/03 19:31:20;;;;;;;10.43;8.40;;;;;;;;;;10356653;28;20520;-64
2022/05/03 19:36:19;;;;;;;6.53;4.53;;;;;;;;;;10359953;28;20288;-64
2022/05/03 19:41:18;;;;;;;4.50;3.58;;;;;;;;;;10360113;28;20082;-64
2022/05/03 19:46:17;;;;;;;5.78;3.53;;;;;;;;;;10359724;28;20536;-64
2022/05/03 19:51:15;;;;;;;3.95;3.40;;;;;;;;;;10358616;28;20071;-63
2022/05/03 19:56:13;;;;;;;6.50;4.80;;;;;;;;;;10357810;28;20086;-64
2022/05/03 20:01:13;;;;;;;4.25;3.50;;;;;;;;;;10358075;28;20517;-63
2022/05/03 20:06:11;;;;;;;3.90;3.50;;;;;;;;;;10357034;28;20071;-64
2022/05/03 20:11:11;;;;;;;6.22;3.65;;;;;;;;;;10357524;28;20075;-63
2022/05/03 20:16:10;;;;;;;4.47;3.55;;;;;;;;;;10357547;28;20110;-64
2022/05/03 20:21:09;;;;;;;4.78;3.92;;;;;;;;;;10355882;28;20070;-64
2022/05/03 20:26:08;;;;;;;4.10;3.70;;;;;;;;;;10355461;28;20052;-64
2022/05/03 20:31:06;;;;;;;3.85;3.30;;;;;;;;;;10355374;28;20074;-64
2022/05/03 20:36:05;;;;;;;4.10;3.70;;;;;;;;;;10357983;28;20080;-64
2022/05/03 20:41:04;;;;;;;6.78;6.13;;;;;;;;;;10356418;28;20086;-64
2022/05/03 20:46:03;;;;;;;3.80;3.40;;;;;;;;;;10357369;28;20071;-64
2022/05/03 20:51:02;;;;;;;4.00;3.60;;;;;;;;;;10357123;28;20072;-64
2022/05/03 20:56:00;;;;;;;3.80;3.38;;;;;;;;;;10356903;28;20080;-64
2022/05/03 21:06:15;;;;;;;7.18;4.20;;;;;;;;;;10355033;28;20083;-64
2022/05/03 21:11:14;;;;;;;4.45;4.05;;;;;;;;;;10356372;28;20366;-64
2022/05/03 21:16:14;;;;;;;4.68;3.63;;;;;;;;;;10356029;28;20086;-63
2022/05/03 21:21:12;;;;;;;4.07;3.70;;;;;;;;;;10355129;28;20086;-64
2022/05/03 21:26:10;;;;;;;3.97;3.40;;;;;;;;;;10355962;28;20083;-64
2022/05/03 21:31:09;;;;;;;4.68;3.80;;;;;;;;;;10356064;28;20083;-63
2022/05/03 21:36:09;;;;;;;4.00;3.35;;;;;;;;;;10353331;28;20094;-64
2022/05/03 21:41:07;;;;;;;4.30;3.70;;;;;;;;;;10353240;28;20044;-64
2022/05/03 21:46:05;;;;;;;4.13;3.47;;;;;;;;;;10352868;28;20074;-65
2022/05/03 21:51:04;;;;;;;3.50;3.20;;;;;;;;;;10354761;28;20076;-64
2022/05/03 21:56:04;;;;;;;3.95;3.58;;;;;;;;;;10355163;28;20083;-64
2022/05/03 22:01:02;;;;;;;5.13;4.25;;;;;;;;;;10354983;28;20486;-65
2022/05/03 22:06:01;;;;;;;4.38;3.55;;;;;;;;;;10354793;28;20075;-64
2022/05/03 22:10:59;;;;;;;4.78;3.28;;;;;;;;;;10354795;28;20687;-64
2022/05/03 22:15:59;;;;;;;5.32;3.53;;;;;;;;;;10354290;28;20091;-64
2022/05/03 22:20:57;;;;;;;3.65;3.20;;;;;;;;;;10354761;28;20466;-65
2022/05/03 22:25:56;;;;;;;5.75;3.40;;;;;;;;;;10353994;28;20080;-64
2022/05/03 22:30:54;;;;;;;2.97;2.78;;;;;;;;;;10354396;28;20088;-64
2022/05/03 22:35:54;;;;;;;3.83;2.90;;;;;;;;;;10354235;28;20075;-64
2022/05/03 22:40:52;;;;;;;3.85;3.45;;;;;;;;;;10354315;28;20048;-64
2022/05/03 22:45:50;;;;;;;3.90;3.60;;;;;;;;;;10354399;28;20076;-64
2022/05/03 22:50:49;;;;;;;3.53;3.22;;;;;;;;;;10355206;28;20059;-64
2022/05/03 22:55:48;;;;;;;5.20;4.65;;;;;;;;;;10355656;28;20043;-64
2022/05/03 23:00:46;;;;;;;4.78;3.08;;;;;;;;;;10354193;28;20068;-64
2022/05/03 23:05:45;;;;;;;3.65;2.92;;;;;;;;;;10360942;28;20082;-64
2022/05/03 23:10:43;;;;;;;3.88;3.53;;;;;;;;;;10361067;28;20079;-64
2022/05/03 23:15:42;;;;;;;4.38;3.25;;;;;;;;;;10360958;28;20067;-64
2022/05/03 23:20:41;;;;;;;3.30;2.83;;;;;;;;;;10357364;28;20080;-64
2022/05/03 23:25:39;;;;;;;3.55;3.10;;;;;;;;;;10357374;28;20473;-64
2022/05/03 23:30:37;;;;;;;8.77;2.92;;;;;;;;;;10356596;28;20076;-64
2022/05/03 23:35:37;;;;;;;4.45;2.97;;;;;;;;;;10360042;28;20055;-64
2022/05/03 23:40:35;;;;;;;4.60;3.35;;;;;;;;;;10359631;28;20106;-64
2022/05/03 23:50:49;;;;;;;;;;;;;;;;;;10360633;28;20087;-63
2022/05/03 23:55:48;;;;;;;3.47;3.05;;;;;;;;;;10360237;28;19989;-64
